Time;durP1;ratioP1;P1;durP2;ratioP2;P2;SDS_P1;SDS_P2;PMS_P1;PMS_P2;Temp;Humidity;BMP_temperature;BMP_pressure;BME280_temperature;BME280_humidity;BME280_pressure;Samples;Min_cycle;Max_cycle;Signal;HPM_P1;HPM_P2
2021/01/29 00:00:59;;;;;;;;;;;4.20;99.90;;;;;;5096286;28;20344;-85
2021/01/29 00:03:27;;;;;;;;;;;4.20;99.90;;;;;;5099150;27;19931;-85
2021/01/29 00:05:58;;;;;;;;;;;4.10;99.90;;;;;;5113756;27;19908;-85
2021/01/29 00:08:29;;;;;;;;;;;4.20;99.90;;;;;;5137878;27;19961;-85
2021/01/29 00:11:00;;;;;;;;;;;4.20;99.90;;;;;;5117322;27;19919;-86
2021/01/29 00:13:29;;;;;;;;;;;4.20;99.90;;;;;;5119772;27;19929;-85
2021/01/29 00:16:01;;;;;;;;;;;4.20;99.90;;;;;;5119450;27;19960;-85
2021/01/29 00:18:32;;;;;;;;;;;4.20;99.90;;;;;;5119439;27;19908;-85
2021/01/29 00:21:06;;;;;;;;;;;4.20;99.90;;;;;;5119231;27;19960;-85
2021/01/29 00:23:36;;;;;;;;;;;4.20;99.90;;;;;;5137446;27;19915;-84
2021/01/29 00:26:04;;;;;;;;;;;4.30;99.90;;;;;;5137489;27;19908;-85
2021/01/29 00:28:30;;;;;;;;;;;4.20;99.90;;;;;;5137542;27;19908;-84
2021/01/29 00:31:03;;;;;;;;;;;4.20;99.90;;;;;;5118747;27;19924;-85
2021/01/29 00:33:35;;;;;;;;;;;4.20;99.90;;;;;;5137394;27;19907;-85
2021/01/29 00:36:03;;;;;;;;;;;4.20;99.90;;;;;;5116841;27;20282;-85
2021/01/29 00:38:31;;;;;;;;;;;4.20;99.90;;;;;;5118864;27;19907;-85
2021/01/29 00:40:58;;;;;;;;;;;4.20;99.90;;;;;;5117713;27;19994;-85
2021/01/29 00:43:29;;;;;;;;;;;4.20;99.90;;;;;;5137583;27;19953;-85
2021/01/29 00:45:57;;;;;;;;;;;4.20;99.90;;;;;;5118768;27;19914;-85
2021/01/29 00:48:25;;;;;;;;;;;4.30;99.90;;;;;;5131480;27;20275;-85
2021/01/29 00:50:50;;;;;;;;;;;4.30;99.90;;;;;;5114556;28;19915;-84
2021/01/29 00:53:18;;;;;;;;;;;4.30;99.90;;;;;;5108303;28;20287;-85
2021/01/29 00:55:44;;;;;;;;;;;4.30;99.90;;;;;;5097298;28;20376;-84
2021/01/29 00:58:15;;;;;;;;;;;4.30;99.90;;;;;;5097289;28;19943;-84
2021/01/29 01:00:44;;;;;;;;;;;4.30;99.90;;;;;;5110493;28;19914;-85
2021/01/29 01:03:13;;;;;;;;;;;4.30;99.90;;;;;;5093720;28;19925;-84
2021/01/29 01:05:42;;;;;;;;;;;4.30;99.90;;;;;;5109808;28;19919;-85
2021/01/29 01:08:11;;;;;;;;;;;4.30;99.90;;;;;;5096588;28;19956;-85
2021/01/29 01:10:47;;;;;;;;;;;4.30;99.90;;;;;;5114063;28;19960;-84
2021/01/29 01:13:16;;;;;;;;;;;4.30;99.90;;;;;;5097196;28;19915;-85
2021/01/29 01:15:44;;;;;;;;;;;4.30;99.90;;;;;;5096627;28;19908;-85
2021/01/29 01:18:11;;;;;;;;;;;4.30;99.90;;;;;;5096614;28;19981;-85
2021/01/29 01:20:38;;;;;;;;;;;4.30;99.90;;;;;;5096444;28;19919;-85
2021/01/29 01:23:07;;;;;;;;;;;4.30;99.90;;;;;;5118536;27;19916;-85
2021/01/29 01:25:36;;;;;;;;;;;4.30;99.90;;;;;;5136263;27;19911;-85
2021/01/29 01:28:04;;;;;;;;;;;4.40;99.90;;;;;;5118146;27;19930;-85
2021/01/29 01:30:50;;;;;;;;;;;4.40;99.90;;;;;;5118150;27;20416;-85
2021/01/29 01:33:27;;;;;;;;;;;4.40;99.90;;;;;;5117712;27;20081;-85
2021/01/29 01:35:59;;;;;;;;;;;4.40;99.90;;;;;;5118475;27;19907;-85
2021/01/29 01:38:27;;;;;;;;;;;4.40;99.90;;;;;;5117623;27;19911;-85
2021/01/29 01:41:03;;;;;;;;;;;4.40;99.90;;;;;;5118357;27;20007;-85
2021/01/29 01:43:36;;;;;;;;;;;4.40;99.90;;;;;;5119279;27;20352;-85
2021/01/29 01:46:04;;;;;;;;;;;4.40;99.90;;;;;;5119005;27;19907;-85
2021/01/29 01:48:48;;;;;;;;;;;4.40;99.90;;;;;;5119477;27;19914;-86
2021/01/29 01:51:22;;;;;;;;;;;4.40;99.90;;;;;;5118554;27;19920;-85
2021/01/29 01:53:53;;;;;;;;;;;4.50;99.90;;;;;;5117893;27;20360;-85
2021/01/29 01:56:22;;;;;;;;;;;4.50;99.90;;;;;;5114593;27;19907;-85
2021/01/29 01:58:54;;;;;;;;;;;4.50;99.90;;;;;;5117605;28;20348;-85
2021/01/29 02:01:26;;;;;;;;;;;4.50;99.90;;;;;;5118167;27;20252;-85
2021/01/29 02:03:52;;;;;;;;;;;4.50;99.90;;;;;;5117266;27;20330;-85
2021/01/29 02:06:25;;;;;;;;;;;4.60;99.90;;;;;;5118222;27;19912;-85
2021/01/29 02:08:58;;;;;;;;;;;4.60;99.90;;;;;;5117424;27;19907;-85
2021/01/29 02:11:23;;;;;;;;;;;4.60;99.90;;;;;;5117020;27;19938;-85
2021/01/29 02:13:51;;;;;;;;;;;4.60;99.90;;;;;;5117280;27;19907;-85
2021/01/29 02:16:34;;;;;;;;;;;4.70;99.90;;;;;;5117373;27;20321;-85
2021/01/29 02:19:02;;;;;;;;;;;4.70;99.90;;;;;;5117529;27;19952;-86
2021/01/29 02:21:34;;;;;;;;;;;4.70;99.90;;;;;;5117169;27;19911;-85
2021/01/29 02:24:24;;;;;;;;;;;4.70;99.90;;;;;;5117626;27;19922;-85
2021/01/29 02:26:58;;;;;;;;;;;4.80;99.90;;;;;;5135759;27;20268;-85
2021/01/29 02:29:34;;;;;;;;;;;4.80;99.90;;;;;;5135736;27;19943;-85
2021/01/29 02:32:23;;;;;;;;;;;4.80;99.90;;;;;;5135685;27;19914;-85
2021/01/29 02:35:00;;;;;;;;;;;4.80;99.90;;;;;;5087251;27;19914;-85
2021/01/29 02:37:42;;;;;;;;;;;4.90;99.90;;;;;;5117508;28;19994;-85
2021/01/29 02:40:07;;;;;;;;;;;4.90;99.90;;;;;;5113753;28;19907;-85
2021/01/29 02:42:45;;;;;;;;;;;4.90;99.90;;;;;;5135640;28;20472;-85
2021/01/29 02:45:16;;;;;;;;;;;4.90;99.90;;;;;;5135755;28;20359;-85
2021/01/29 02:47:55;;;;;;;;;;;4.90;99.90;;;;;;5116972;28;20311;-85
2021/01/29 02:50:44;;;;;;;;;;;5.00;99.90;;;;;;5134967;28;19954;-85
2021/01/29 02:53:24;;;;;;;;;;;5.00;99.90;;;;;;5120999;28;19914;-85
2021/01/29 02:56:09;;;;;;;;;;;5.00;99.90;;;;;;5116606;28;19915;-85
2021/01/29 02:58:55;;;;;;;;;;;5.00;99.90;;;;;;5134818;28;20011;-85
2021/01/29 03:01:31;;;;;;;;;;;5.10;99.90;;;;;;5065309;28;19998;-85
2021/01/29 03:04:03;;;;;;;;;;;5.10;99.90;;;;;;5116260;28;19911;-85
2021/01/29 03:06:39;;;;;;;;;;;5.10;99.90;;;;;;5116342;28;20014;-85
2021/01/29 03:09:10;;;;;;;;;;;5.20;99.90;;;;;;5115993;28;19919;-85
2021/01/29 03:11:42;;;;;;;;;;;5.20;99.90;;;;;;5117913;27;19922;-84
2021/01/29 03:14:12;;;;;;;;;;;5.20;99.90;;;;;;5120290;27;20432;-85
2021/01/29 03:16:50;;;;;;;;;;;5.30;99.90;;;;;;5139067;27;19935;-86
2021/01/29 03:19:18;;;;;;;;;;;5.30;99.90;;;;;;5138829;27;20252;-85
2021/01/29 03:21:52;;;;;;;;;;;5.30;99.90;;;;;;5120149;27;19914;-85
2021/01/29 03:24:21;;;;;;;;;;;5.30;99.90;;;;;;5120655;27;19907;-85
2021/01/29 03:26:59;;;;;;;;;;;5.40;99.90;;;;;;5138917;27;19914;-85
2021/01/29 03:29:37;;;;;;;;;;;5.40;99.90;;;;;;5119861;27;19972;-85
2021/01/29 03:32:16;;;;;;;;;;;5.40;99.90;;;;;;5120083;27;19907;-85
2021/01/29 03:34:51;;;;;;;;;;;5.40;99.90;;;;;;5119631;27;19960;-85
2021/01/29 03:37:24;;;;;;;;;;;5.50;99.90;;;;;;5120016;27;19911;-85
2021/01/29 03:39:52;;;;;;;;;;;5.50;99.90;;;;;;5119774;27;19908;-85
2021/01/29 03:42:32;;;;;;;;;;;5.50;99.90;;;;;;5138405;27;19907;-85
2021/01/29 03:45:09;;;;;;;;;;;5.50;99.90;;;;;;5119474;27;19912;-86
2021/01/29 03:47:36;;;;;;;;;;;5.50;99.90;;;;;;5138213;27;19961;-85
2021/01/29 03:50:07;;;;;;;;;;;5.50;99.90;;;;;;5094890;28;19917;-85
2021/01/29 03:52:59;;;;;;;;;;;5.50;99.90;;;;;;5077911;28;19999;-86
2021/01/29 03:55:44;;;;;;;;;;;5.50;99.90;;;;;;5094745;28;19998;-85
2021/01/29 03:58:13;;;;;;;;;;;5.60;99.90;;;;;;5095349;28;19915;-85
2021/01/29 04:01:02;;;;;;;;;;;5.60;99.90;;;;;;5088390;28;19908;-85
2021/01/29 04:03:36;;;;;;;;;;;5.60;99.90;;;;;;5094580;28;19920;-86
2021/01/29 04:06:14;;;;;;;;;;;5.60;99.90;;;;;;5077973;28;19920;-85
2021/01/29 04:08:58;;;;;;;;;;;5.60;99.90;;;;;;5094463;28;20004;-85
2021/01/29 04:11:31;;;;;;;;;;;5.60;99.90;;;;;;5077792;28;20411;-85
2021/01/29 04:13:59;;;;;;;;;;;5.60;99.90;;;;;;5094432;28;19970;-85
2021/01/29 04:16:36;;;;;;;;;;;5.60;99.90;;;;;;5094634;28;20388;-85
2021/01/29 04:19:11;;;;;;;;;;;5.70;99.90;;;;;;5089769;28;19912;-85
2021/01/29 04:21:45;;;;;;;;;;;5.70;99.90;;;;;;5126593;27;19912;-86
2021/01/29 04:24:30;;;;;;;;;;;5.70;99.90;;;;;;5133047;27;19907;-86
2021/01/29 04:27:07;;;;;;;;;;;5.70;99.90;;;;;;5119556;27;19914;-85
2021/01/29 04:29:38;;;;;;;;;;;5.70;99.90;;;;;;5119444;27;19947;-85
2021/01/29 04:32:11;;;;;;;;;;;5.80;99.90;;;;;;5119370;27;19930;-85
2021/01/29 04:34:41;;;;;;;;;;;5.80;99.90;;;;;;5118897;27;19911;-85
2021/01/29 04:37:17;;;;;;;;;;;5.80;99.90;;;;;;5137543;27;19908;-85
2021/01/29 04:39:44;;;;;;;;;;;5.80;99.90;;;;;;5119366;27;19968;-85
2021/01/29 04:42:13;;;;;;;;;;;5.80;99.90;;;;;;5137843;27;19939;-86
2021/01/29 04:44:47;;;;;;;;;;;5.90;99.90;;;;;;5118535;27;19933;-85
2021/01/29 04:47:29;;;;;;;;;;;5.90;99.90;;;;;;5118955;27;19974;-86
2021/01/29 04:50:07;;;;;;;;;;;5.90;99.90;;;;;;5118847;27;19916;-85
2021/01/29 04:52:52;;;;;;;;;;;5.90;99.90;;;;;;5118739;27;19908;-85
2021/01/29 04:55:43;;;;;;;;;;;6.00;99.90;;;;;;5136970;27;19914;-86
2021/01/29 04:58:17;;;;;;;;;;;6.00;99.90;;;;;;5118507;27;19994;-85
2021/01/29 05:01:02;;;;;;;;;;;6.00;99.90;;;;;;5118590;27;20392;-85
2021/01/29 05:03:37;;;;;;;;;;;6.00;99.90;;;;;;5118599;27;19908;-86
2021/01/29 05:06:06;;;;;;;;;;;6.00;99.90;;;;;;5117846;27;20022;-85
2021/01/29 05:08:50;;;;;;;;;;;6.00;99.90;;;;;;5137149;27;19907;-86
2021/01/29 05:11:28;;;;;;;;;;;6.10;99.90;;;;;;5118598;27;19916;-86
2021/01/29 05:14:18;;;;;;;;;;;6.00;99.90;;;;;;5137031;27;19922;-86
2021/01/29 05:17:02;;;;;;;;;;;6.00;99.90;;;;;;5088588;27;19908;-86
2021/01/29 05:19:38;;;;;;;;;;;6.00;99.90;;;;;;5136795;27;19908;-85
2021/01/29 05:22:27;;;;;;;;;;;6.10;99.90;;;;;;5118000;27;19907;-86
2021/01/29 05:24:58;;;;;;;;;;;6.10;99.90;;;;;;5070609;27;19930;-85
2021/01/29 05:27:42;;;;;;;;;;;6.10;99.90;;;;;;5118181;27;20002;-85
2021/01/29 05:30:23;;;;;;;;;;;6.10;99.90;;;;;;5117657;27;19938;-85
2021/01/29 05:33:11;;;;;;;;;;;6.20;99.90;;;;;;5117763;27;19907;-85
2021/01/29 05:35:50;;;;;;;;;;;6.10;99.90;;;;;;5117436;27;19911;-85
2021/01/29 05:38:24;;;;;;;;;;;6.10;99.90;;;;;;5136457;27;19960;-85
2021/01/29 05:40:58;;;;;;;;;;;6.10;99.90;;;;;;5117835;27;19957;-86
2021/01/29 05:43:27;;;;;;;;;;;6.10;99.90;;;;;;5136125;27;20369;-85
2021/01/29 05:46:00;;;;;;;;;;;6.20;99.90;;;;;;5117609;27;19950;-85
2021/01/29 05:48:44;;;;;;;;;;;6.20;99.90;;;;;;5117695;27;19998;-85
2021/01/29 05:51:19;;;;;;;;;;;6.20;99.90;;;;;;5136254;27;19916;-85
2021/01/29 05:54:03;;;;;;;;;;;6.20;99.90;;;;;;5117676;27;19908;-85
2021/01/29 05:56:34;;;;;;;;;;;6.30;99.90;;;;;;5135714;27;19907;-85
2021/01/29 05:59:02;;;;;;;;;;;6.30;99.90;;;;;;5117085;27;20027;-85
2021/01/29 06:01:40;;;;;;;;;;;6.40;99.90;;;;;;5117544;27;19915;-85
2021/01/29 06:04:15;;;;;;;;;;;6.40;99.90;;;;;;5116821;27;19919;-85
2021/01/29 06:06:54;;;;;;;;;;;6.50;99.90;;;;;;5116745;27;19907;-85
2021/01/29 06:09:28;;;;;;;;;;;6.80;99.90;;;;;;5116899;27;19907;-84
2021/01/29 06:11:57;;;;;;;;;;;7.10;99.90;;;;;;5116924;27;19923;-84
2021/01/29 06:14:41;;;;;;;;;;;7.30;99.90;;;;;;5117076;27;19908;-84
2021/01/29 06:17:14;;;;;;;;;;;7.50;99.90;;;;;;5116307;27;20023;-85
2021/01/29 06:19:58;;;;;;;;;;;7.60;99.90;;;;;;5116699;27;19907;-84
2021/01/29 06:22:42;;;;;;;;;;;7.60;99.90;;;;;;5121939;27;20003;-85
2021/01/29 06:25:23;;;;;;;;;;;7.70;99.90;;;;;;5123415;27;19911;-85
2021/01/29 06:27:57;;;;;;;;;;;7.90;99.90;;;;;;5116332;27;20004;-85
2021/01/29 06:30:38;;;;;;;;;;;8.00;99.90;;;;;;5133549;27;19958;-84
2021/01/29 06:33:38;;;;;;;;;;;8.00;99.90;;;;;;5116428;27;19911;-85
2021/01/29 06:36:11;;;;;;;;;;;8.10;99.90;;;;;;5031516;28;19915;-84
2021/01/29 06:38:55;;;;;;;;;;;8.20;99.90;;;;;;5034122;28;19908;-85
2021/01/29 06:41:36;;;;;;;;;;;8.20;99.90;;;;;;5116629;28;19918;-85
2021/01/29 06:44:22;;;;;;;;;;;8.30;99.90;;;;;;5116692;28;20265;-85
2021/01/29 06:47:12;;;;;;;;;;;8.30;99.90;;;;;;5120463;27;19931;-85
2021/01/29 06:49:57;;;;;;;;;;;8.30;99.90;;;;;;5120412;27;19907;-85
2021/01/29 06:52:32;;;;;;;;;;;8.40;99.90;;;;;;5120378;27;19914;-84
2021/01/29 06:55:03;;;;;;;;;;;8.40;99.90;;;;;;5120823;27;19907;-84
2021/01/29 06:57:41;;;;;;;;;;;8.40;99.90;;;;;;5120197;27;19914;-84
2021/01/29 07:00:15;;;;;;;;;;;8.40;99.90;;;;;;5120749;27;20398;-84
2021/01/29 07:03:02;;;;;;;;;;;8.40;99.90;;;;;;5120718;27;20007;-84
2021/01/29 07:05:35;;;;;;;;;;;8.40;99.90;;;;;;5138740;27;20403;-84
2021/01/29 07:08:18;;;;;;;;;;;8.40;99.90;;;;;;5119557;27;19990;-84
2021/01/29 07:10:53;;;;;;;;;;;8.40;99.90;;;;;;5120700;27;19951;-84
2021/01/29 07:13:39;;;;;;;;;;;8.40;99.90;;;;;;5138519;27;19907;-84
2021/01/29 07:16:23;;;;;;;;;;;8.30;99.90;;;;;;5138468;27;20007;-84
2021/01/29 07:18:58;;;;;;;;;;;8.40;99.90;;;;;;5138757;27;20030;-84
2021/01/29 07:21:42;;;;;;;;;;;8.40;99.90;;;;;;5139585;27;19907;-83
2021/01/29 07:24:26;;;;;;;;;;;8.30;99.90;;;;;;5121502;27;19952;-84
2021/01/29 07:27:10;;;;;;;;;;;8.30;99.90;;;;;;5138470;27;19912;-84
2021/01/29 07:29:59;;;;;;;;;;;8.30;99.90;;;;;;5138325;27;19961;-83
2021/01/29 07:32:43;;;;;;;;;;;8.30;99.90;;;;;;5081679;27;20002;-84
2021/01/29 07:35:41;;;;;;;;;;;8.30;99.90;;;;;;5119706;27;20002;-84
2021/01/29 07:38:10;;;;;;;;;;;8.30;99.90;;;;;;5103708;27;20014;-84
2021/01/29 07:40:56;;;;;;;;;;;8.40;99.90;;;;;;5119889;27;19907;-84
2021/01/29 07:43:43;;;;;;;;;;;8.40;99.90;;;;;;5119308;27;20427;-83
2021/01/29 07:46:19;;;;;;;;;;;8.40;99.90;;;;;;5119527;27;20379;-83
2021/01/29 07:48:54;;;;;;;;;;;8.30;99.90;;;;;;5119805;27;19915;-84
2021/01/29 07:51:43;;;;;;;;;;;8.30;99.90;;;;;;5119452;27;20390;-83
2021/01/29 07:54:18;;;;;;;;;;;8.40;99.90;;;;;;5120196;27;20015;-83
2021/01/29 07:56:50;;;;;;;;;;;8.30;99.90;;;;;;5118270;28;19915;-84
2021/01/29 07:59:25;;;;;;;;;;;8.30;99.90;;;;;;5119802;27;19965;-83
2021/01/29 08:02:09;;;;;;;;;;;8.30;99.90;;;;;;5119095;27;19928;-83
2021/01/29 08:04:49;;;;;;;;;;;8.30;99.90;;;;;;5119175;27;19919;-83
2021/01/29 08:07:22;;;;;;;;;;;8.30;99.90;;;;;;5119500;27;20321;-83
2021/01/29 08:10:13;;;;;;;;;;;8.30;99.90;;;;;;5119223;27;19912;-84
2021/01/29 08:13:04;;;;;;;;;;;8.30;99.90;;;;;;5118719;27;19934;-84
2021/01/29 08:16:05;;;;;;;;;;;8.30;99.90;;;;;;5087764;27;19919;-84
2021/01/29 08:18:47;;;;;;;;;;;8.30;99.90;;;;;;5092769;27;19915;-84
2021/01/29 08:21:31;;;;;;;;;;;8.40;99.90;;;;;;5119413;27;19942;-84
2021/01/29 08:24:02;;;;;;;;;;;8.40;99.90;;;;;;5137610;27;19998;-84
2021/01/29 08:26:46;;;;;;;;;;;8.40;99.90;;;;;;5137201;27;19908;-84
2021/01/29 08:29:37;;;;;;;;;;;8.40;99.90;;;;;;5137410;27;20275;-84
2021/01/29 08:32:09;;;;;;;;;;;8.40;99.90;;;;;;5132026;27;19970;-83
2021/01/29 08:34:53;;;;;;;;;;;8.40;99.90;;;;;;5133694;27;20359;-83
2021/01/29 08:37:41;;;;;;;;;;;8.40;99.90;;;;;;5129992;27;19947;-84
2021/01/29 08:40:45;;;;;;;;;;;8.50;99.90;;;;;;5124409;27;19907;-85
2021/01/29 08:43:25;;;;;;;;;;;8.50;99.90;;;;;;5037562;28;19909;-84
2021/01/29 08:46:01;;;;;;;;;;;8.60;99.90;;;;;;5129323;27;19937;-85
2021/01/29 08:48:36;;;;;;;;;;;8.60;99.90;;;;;;5118911;27;19911;-84
2021/01/29 08:51:26;;;;;;;;;;;8.60;99.90;;;;;;5119404;27;19923;-84
2021/01/29 08:54:11;;;;;;;;;;;8.70;99.90;;;;;;5118772;27;19935;-84
2021/01/29 08:56:45;;;;;;;;;;;8.60;99.90;;;;;;5118334;27;20316;-84
2021/01/29 08:59:18;;;;;;;;;;;8.70;99.90;;;;;;5119127;27;19930;-84
2021/01/29 09:01:49;;;;;;;;;;;8.70;99.90;;;;;;5119260;27;20267;-84
2021/01/29 09:04:33;;;;;;;;;;;8.60;99.90;;;;;;5118348;27;20260;-84
2021/01/29 09:07:00;;;;;;;;;;;8.60;99.90;;;;;;5117874;27;19959;-84
2021/01/29 09:09:33;;;;;;;;;;;8.60;99.90;;;;;;5117965;27;19908;-85
2021/01/29 09:12:01;;;;;;;;;;;8.60;99.90;;;;;;5118274;27;19960;-85
2021/01/29 09:14:35;;;;;;;;;;;8.60;99.90;;;;;;5118140;27;20417;-85
2021/01/29 09:17:16;;;;;;;;;;;8.60;99.90;;;;;;5118402;27;19957;-85
2021/01/29 09:19:51;;;;;;;;;;;8.60;99.90;;;;;;5118377;27;19914;-84
2021/01/29 09:22:45;;;;;;;;;;;8.60;99.90;;;;;;5118431;27;19919;-82
2021/01/29 09:25:21;;;;;;;;;;;8.60;99.90;;;;;;5115641;27;19919;-84
2021/01/29 09:27:55;;;;;;;;;;;8.50;99.90;;;;;;5113434;28;19959;-84
2021/01/29 09:30:31;;;;;;;;;;;8.50;99.90;;;;;;5113237;28;19950;-85
2021/01/29 09:33:00;;;;;;;;;;;8.50;99.90;;;;;;5096113;28;20315;-85
2021/01/29 09:35:57;;;;;;;;;;;8.40;99.90;;;;;;5113268;28;19994;-85
2021/01/29 09:38:34;;;;;;;;;;;8.40;99.90;;;;;;5095146;28;19914;-84
2021/01/29 09:41:04;;;;;;;;;;;8.40;99.90;;;;;;5095910;28;20103;-84
2021/01/29 09:43:44;;;;;;;;;;;8.40;99.90;;;;;;5112941;28;19912;-84
2021/01/29 09:46:13;;;;;;;;;;;8.30;99.90;;;;;;5095844;28;19914;-85
2021/01/29 09:48:50;;;;;;;;;;;8.30;99.90;;;;;;5113009;28;19939;-85
2021/01/29 09:51:33;;;;;;;;;;;8.30;99.90;;;;;;5096196;28;19916;-84
2021/01/29 09:54:13;;;;;;;;;;;8.30;99.90;;;;;;5108328;28;19918;-84
2021/01/29 09:56:42;;;;;;;;;;;8.30;99.90;;;;;;5113138;28;20387;-84
2021/01/29 09:59:20;;;;;;;;;;;8.30;99.90;;;;;;5127547;27;19907;-85
2021/01/29 10:02:05;;;;;;;;;;;8.20;99.90;;;;;;5116877;27;19949;-84
2021/01/29 10:04:49;;;;;;;;;;;8.20;99.90;;;;;;5117124;27;20339;-84
2021/01/29 10:07:22;;;;;;;;;;;8.20;99.90;;;;;;5134316;27;20412;-84
2021/01/29 10:10:17;;;;;;;;;;;8.20;99.90;;;;;;5117210;27;19958;-84
2021/01/29 10:13:20;;;;;;;;;;;8.20;99.90;;;;;;5119255;27;19922;-84
2021/01/29 10:15:54;;;;;;;;;;;8.20;99.90;;;;;;5092669;27;19915;-85
2021/01/29 10:18:24;;;;;;;;;;;8.20;99.90;;;;;;5134789;27;19908;-86
2021/01/29 10:21:04;;;;;;;;;;;8.20;99.90;;;;;;5130914;27;20010;-85
2021/01/29 10:23:42;;;;;;;;;;;8.20;99.90;;;;;;5134198;27;19908;-85
2021/01/29 10:26:26;;;;;;;;;;;8.20;99.90;;;;;;5074786;28;19908;-84
2021/01/29 10:29:03;;;;;;;;;;;8.30;99.90;;;;;;5093064;28;20006;-84
2021/01/29 10:31:45;;;;;;;;;;;8.30;99.90;;;;;;5092379;28;19916;-84
2021/01/29 10:34:32;;;;;;;;;;;8.30;99.90;;;;;;5073739;28;19912;-83
2021/01/29 10:37:27;;;;;;;;;;;8.40;99.90;;;;;;5075313;28;19909;-84
2021/01/29 10:40:04;;;;;;;;;;;8.40;99.90;;;;;;5075373;28;20012;-84
2021/01/29 10:42:52;;;;;;;;;;;8.50;99.90;;;;;;5075130;28;19908;-83
2021/01/29 10:45:29;;;;;;;;;;;8.50;99.90;;;;;;5080097;28;19908;-84
2021/01/29 10:48:12;;;;;;;;;;;8.60;99.90;;;;;;5074528;28;19916;-85
2021/01/29 10:51:00;;;;;;;;;;;8.70;99.90;;;;;;5076679;28;19920;-85
2021/01/29 10:53:27;;;;;;;;;;;8.80;99.90;;;;;;5075072;28;19923;-84
2021/01/29 10:56:03;;;;;;;;;;;8.90;99.90;;;;;;5091784;28;19908;-84
2021/01/29 10:58:53;;;;;;;;;;;9.00;99.90;;;;;;5133396;28;19907;-84
2021/01/29 11:01:29;;;;;;;;;;;9.00;99.90;;;;;;5133844;28;20379;-85
2021/01/29 11:04:05;;;;;;;;;;;9.10;99.90;;;;;;5134702;28;19918;-86
2021/01/29 11:06:46;;;;;;;;;;;9.20;99.90;;;;;;5133183;28;20386;-84
2021/01/29 11:09:23;;;;;;;;;;;9.30;99.90;;;;;;5130139;28;19911;-84
2021/01/29 11:12:16;;;;;;;;;;;9.30;99.90;;;;;;5134462;28;19916;-85
2021/01/29 11:15:01;;;;;;;;;;;9.40;99.90;;;;;;5103411;28;19998;-83
2021/01/29 11:17:45;;;;;;;;;;;9.40;99.90;;;;;;5134552;28;20379;-85
2021/01/29 11:20:18;;;;;;;;;;;9.50;99.90;;;;;;5135252;28;19908;-85
2021/01/29 11:22:53;;;;;;;;;;;9.60;99.90;;;;;;5134138;28;19907;-85
2021/01/29 11:25:50;;;;;;;;;;;9.60;99.90;;;;;;5135564;28;19914;-84
2021/01/29 11:28:30;;;;;;;;;;;9.60;99.90;;;;;;5117355;28;19908;-85
2021/01/29 11:31:14;;;;;;;;;;;9.70;99.90;;;;;;5133767;27;19937;-85
2021/01/29 11:33:44;;;;;;;;;;;9.70;99.90;;;;;;5136748;27;19908;-84
2021/01/29 11:36:12;;;;;;;;;;;9.60;99.90;;;;;;5137316;27;19907;-84
2021/01/29 11:38:44;;;;;;;;;;;9.60;99.90;;;;;;5137418;27;20275;-84
2021/01/29 11:41:16;;;;;;;;;;;9.60;99.90;;;;;;5137201;27;19907;-84
2021/01/29 11:44:26;;;;;;;;;;;;;;;;;;;;;
2021/01/29 11:46:59;;;;;;;;;;;9.50;99.90;;;;;;5087205;28;19912;-84
2021/01/29 11:49:31;;;;;;;;;;;9.60;99.90;;;;;;5081340;28;19908;-85
2021/01/29 11:52:08;;;;;;;;;;;9.70;99.90;;;;;;5098095;28;19928;-83
2021/01/29 11:54:41;;;;;;;;;;;9.80;99.90;;;;;;5115374;28;19915;-85
2021/01/29 11:57:16;;;;;;;;;;;9.80;99.90;;;;;;5098100;28;20002;-85
2021/01/29 12:00:00;;;;;;;;;;;9.80;99.90;;;;;;5115274;28;19946;-85
2021/01/29 12:02:44;;;;;;;;;;;10.00;99.90;;;;;;5098229;28;19907;-85
2021/01/29 12:05:19;;;;;;;;;;;10.10;99.90;;;;;;5108635;28;19926;-85
2021/01/29 12:07:52;;;;;;;;;;;10.20;99.90;;;;;;5098303;28;19959;-85
2021/01/29 12:10:35;;;;;;;;;;;10.30;99.90;;;;;;5114823;28;20368;-85
2021/01/29 12:13:06;;;;;;;;;;;10.30;99.90;;;;;;5097912;28;19908;-86
2021/01/29 12:15:54;;;;;;;;;;;10.30;99.90;;;;;;5098221;28;19908;-85
2021/01/29 12:18:23;;;;;;;;;;;10.20;99.90;;;;;;5097945;28;19973;-85
2021/01/29 12:20:49;;;;;;;;;;;10.10;99.90;;;;;;5097385;28;20368;-85
2021/01/29 12:23:33;;;;;;;;;;;10.10;99.90;;;;;;5098769;27;19915;-85
2021/01/29 12:26:11;;;;;;;;;;;10.10;99.90;;;;;;5137643;27;19903;-86
2021/01/29 12:28:49;;;;;;;;;;;10.20;99.90;;;;;;5143270;27;19912;-84
2021/01/29 12:31:14;;;;;;;;;;;10.20;99.90;;;;;;5142479;27;19919;-84
2021/01/29 12:33:52;;;;;;;;;;;10.20;99.90;;;;;;5137287;27;19915;-84
2021/01/29 12:36:37;;;;;;;;;;;10.20;99.90;;;;;;5118450;27;19961;-86
2021/01/29 12:39:23;;;;;;;;;;;10.20;99.90;;;;;;5135869;27;19914;-85
2021/01/29 12:42:23;;;;;;;;;;;10.10;99.90;;;;;;5137053;27;19908;-85
2021/01/29 12:45:05;;;;;;;;;;;10.00;99.90;;;;;;5135569;27;19907;-87
2021/01/29 12:47:48;;;;;;;;;;;10.00;99.90;;;;;;5135952;27;19960;-85
2021/01/29 12:50:22;;;;;;;;;;;10.00;99.90;;;;;;5135525;27;19919;-86
2021/01/29 12:53:02;;;;;;;;;;;9.90;99.90;;;;;;5137239;27;20003;-85
2021/01/29 12:55:44;;;;;;;;;;;9.80;99.90;;;;;;5135195;27;20061;-83
2021/01/29 12:58:13;;;;;;;;;;;9.70;99.90;;;;;;5135643;27;20002;-85
2021/01/29 13:00:57;;;;;;;;;;;9.60;99.90;;;;;;5134896;27;19915;-85
2021/01/29 13:03:48;;;;;;;;;;;9.40;99.90;;;;;;5135720;27;20002;-85
2021/01/29 13:06:26;;;;;;;;;;;9.30;99.90;;;;;;5116763;27;19919;-84
2021/01/29 13:09:20;;;;;;;;;;;9.20;99.90;;;;;;5136303;27;20305;-84
2021/01/29 13:11:49;;;;;;;;;;;9.20;99.90;;;;;;5103252;27;20010;-84
2021/01/29 13:14:15;;;;;;;;;;;9.20;99.90;;;;;;5128320;27;19935;-84
2021/01/29 13:16:46;;;;;;;;;;;9.30;99.90;;;;;;5126432;27;19950;-84
2021/01/29 13:19:26;;;;;;;;;;;9.30;99.90;;;;;;5122660;27;20002;-85
2021/01/29 13:22:05;;;;;;;;;;;9.20;99.90;;;;;;5143269;27;19922;-85
2021/01/29 13:24:33;;;;;;;;;;;9.10;99.90;;;;;;5123011;27;19951;-84
2021/01/29 13:27:03;;;;;;;;;;;9.00;99.90;;;;;;5136398;27;19919;-85
2021/01/29 13:29:31;;;;;;;;;;;9.00;99.90;;;;;;5114559;27;19911;-84
2021/01/29 13:32:09;;;;;;;;;;;9.00;99.90;;;;;;5135317;27;19919;-85
2021/01/29 13:34:43;;;;;;;;;;;8.90;99.90;;;;;;5135773;27;19908;-84
2021/01/29 13:37:17;;;;;;;;;;;9.00;99.90;;;;;;5117915;27;19915;-85
2021/01/29 13:39:46;;;;;;;;;;;8.90;99.90;;;;;;5121475;27;19918;-85
2021/01/29 13:42:19;;;;;;;;;;;8.90;99.90;;;;;;5156531;27;20027;-85
2021/01/29 13:44:53;;;;;;;;;;;8.90;99.90;;;;;;5138860;27;19907;-86
2021/01/29 13:47:37;;;;;;;;;;;9.00;99.90;;;;;;5156716;27;19914;-85
2021/01/29 13:50:19;;;;;;;;;;;9.00;99.90;;;;;;5092453;28;19916;-84
2021/01/29 13:52:56;;;;;;;;;;;9.00;99.90;;;;;;5075263;28;20041;-84
2021/01/29 13:55:43;;;;;;;;;;;9.00;99.90;;;;;;5089608;28;20003;-85
2021/01/29 13:58:19;;;;;;;;;;;9.10;99.90;;;;;;5072986;28;19916;-85
2021/01/29 14:00:59;;;;;;;;;;;9.30;99.90;;;;;;5076226;28;20344;-85
2021/01/29 14:03:43;;;;;;;;;;;9.40;99.90;;;;;;5075591;28;19977;-85
2021/01/29 14:06:20;;;;;;;;;;;9.60;99.90;;;;;;5078064;28;19920;-86
2021/01/29 14:09:03;;;;;;;;;;;9.70;99.90;;;;;;5071238;28;20459;-85
2021/01/29 14:11:35;;;;;;;;;;;9.70;99.90;;;;;;5063065;28;19938;-85
2021/01/29 14:14:09;;;;;;;;;;;9.70;99.90;;;;;;5071883;27;19955;-86
2021/01/29 14:16:48;;;;;;;;;;;9.50;99.90;;;;;;5135581;27;19907;-86
2021/01/29 14:19:39;;;;;;;;;;;9.40;99.90;;;;;;5135817;27;19950;-86
2021/01/29 14:22:29;;;;;;;;;;;9.30;99.90;;;;;;5116836;27;19908;-84
2021/01/29 14:25:02;;;;;;;;;;;9.30;99.90;;;;;;5116776;27;19970;-86
2021/01/29 14:27:36;;;;;;;;;;;9.30;99.90;;;;;;5116414;27;19918;-86
2021/01/29 14:30:09;;;;;;;;;;;9.20;99.90;;;;;;5116518;28;19961;-85
2021/01/29 14:32:51;;;;;;;;;;;9.30;99.90;;;;;;5135382;27;20271;-83
2021/01/29 14:35:24;;;;;;;;;;;9.30;99.90;;;;;;5108174;27;19948;-85
2021/01/29 14:38:22;;;;;;;;;;;9.40;99.90;;;;;;5135425;27;19992;-85
2021/01/29 14:40:54;;;;;;;;;;;9.30;99.90;;;;;;5060768;27;19955;-85
2021/01/29 14:43:43;;;;;;;;;;;9.30;99.90;;;;;;5135056;27;19908;-85
2021/01/29 14:46:32;;;;;;;;;;;9.20;99.90;;;;;;5116546;28;19908;-84
2021/01/29 14:49:01;;;;;;;;;;;9.20;99.90;;;;;;5116194;27;20364;-85
2021/01/29 14:51:36;;;;;;;;;;;9.10;99.90;;;;;;5116692;28;19923;-84
2021/01/29 14:54:08;;;;;;;;;;;9.10;99.90;;;;;;5117265;28;19946;-84
2021/01/29 14:56:43;;;;;;;;;;;9.10;99.90;;;;;;5116865;28;19907;-84
2021/01/29 14:59:22;;;;;;;;;;;9.10;99.90;;;;;;5116685;28;19972;-84
2021/01/29 15:01:51;;;;;;;;;;;9.10;99.90;;;;;;5116012;27;20006;-84
2021/01/29 15:04:25;;;;;;;;;;;9.10;99.90;;;;;;5116505;28;19967;-84
2021/01/29 15:06:57;;;;;;;;;;;9.10;99.90;;;;;;5138039;27;19919;-85
2021/01/29 15:09:31;;;;;;;;;;;9.10;99.90;;;;;;5141137;27;19911;-85
2021/01/29 15:12:03;;;;;;;;;;;9.10;99.90;;;;;;5140501;27;20001;-84
2021/01/29 15:14:55;;;;;;;;;;;9.10;99.90;;;;;;5140195;27;19908;-84
2021/01/29 15:17:27;;;;;;;;;;;9.10;99.90;;;;;;5140591;27;19913;-85
2021/01/29 15:20:26;;;;;;;;;;;9.10;99.90;;;;;;5159753;27;19911;-86
2021/01/29 15:23:07;;;;;;;;;;;9.00;99.90;;;;;;5131376;27;20006;-85
2021/01/29 15:25:43;;;;;;;;;;;9.00;99.90;;;;;;5159163;27;19908;-85
2021/01/29 15:28:30;;;;;;;;;;;9.00;99.90;;;;;;5142041;27;19911;-84
2021/01/29 15:30:59;;;;;;;;;;;9.00;99.90;;;;;;5142203;27;19915;-84